Date,TemperatureHighF,TemperatureAvgF,TemperatureLowF,DewpointHighF,DewpointAvgF,DewpointLowF,HumidityHigh,HumidityAvg,HumidityLow,PressureMaxIn,PressureMinIn,WindSpeedMaxMPH,WindSpeedAvgMPH,GustSpeedMaxMPH,PrecipitationSumIn
2013-1-1,28.8,21.8,9.5,21.7,14.3,5.7,90,73,58,30.21,30.03,8,2,15,0.00
2013-1-2,26.7,21.6,12.6,20.5,16.8,8.7,90,82,74,30.26,30.14,7,2,15,0.00
2013-1-3,30.1,23.4,15.4,26.9,18.4,8.2,89,81,70,30.23,30.13,8,4,16,0.00
2013-1-4,30.6,27.4,23.6,27.4,21.8,18.9,92,79,67,30.25,30.04,12,7,23,0.00
2013-1-5,33.1,26.1,13.9,31.3,22.9,11.5,94,88,78,30.35,30.09,10,3,16,0.00
2013-1-6,36.1,34.0,32.7,33.5,31.0,27.2,96,89,80,30.32,29.96,8,4,15,0.04
2013-1-7,34.8,31.9,29.6,27.5,25.9,23.6,84,78,73,30.43,30.20,15,6,23,0.01
2013-1-8,36.2,30.1,24.3,29.4,25.8,21.8,90,84,76,30.30,30.21,9,4,19,0.00
2013-1-9,46.7,38.7,29.6,35.6,29.8,25.2,91,72,45,30.49,30.05,13,7,27,0.00
2013-1-10,40.7,32.9,23.2,33.9,28.0,21.5,95,83,63,30.61,30.22,11,4,20,0.07
2013-1-11,57.5,45.1,35.7,52.7,42.9,33.7,98,92,78,30.22,29.80,9,6,19,0.68
2013-1-12,59.4,51.1,44.8,52.6,48.3,43.4,97,90,77,29.97,29.86,8,2,15,0.00
2013-1-13,50.7,38.8,30.8,49.9,37.2,28.5,97,94,88,30.09,29.74,9,4,18,0.27
2013-1-14,30.8,24.6,17.4,27.7,19.9,15.2,92,82,75,30.49,30.09,10,4,22,0.00
2013-1-15,30.1,22.4,13.2,22.6,17.9,11.1,100,83,66,30.50,30.22,6,1,8,0.02
2013-1-16,38.3,29.8,19.7,29.3,21.1,16.9,94,72,42,30.22,29.81,11,4,21,0.01
2013-1-17,37.0,31.2,20.4,30.4,23.1,11.1,85,72,56,30.36,30.01,12,6,22,0.01
2013-1-18,35.0,26.6,16.2,25.6,17.3,9.4,80,68,57,30.49,30.04,15,7,27,0.00
2013-1-19,47.6,41.7,34.8,36.8,31.5,25.4,74,67,58,30.04,29.62,15,8,26,0.22
2013-1-20,44.7,22.9,17.3,36.0,12.1,6.6,79,63,44,30.24,29.60,19,10,37,0.01
2013-1-21,18.9,14.2,5.6,15.8,8.1,-0.1,89,77,64,30.21,30.01,11,4,23,0.00
2013-1-22,10.5,5.5,-1.2,4.4,-1.4,-6.8,84,73,60,30.37,30.19,10,4,18,0.00
2013-1-23,18.0,11.7,2.6,11.7,4.8,-99.9,87,77,66,30.38,30.16,8,-12,15,0.00
2013-1-24,19.3,13.9,9.2,11.6,5.4,0.1,87,70,43,30.66,30.19,8,3,15,0.00
2013-1-25,20.3,18.1,14.6,18.2,13.7,4.3,92,83,63,30.58,30.08,9,4,15,0.00
2013-1-26,26.1,22.3,17.2,19.3,17.5,14.0,92,82,66,30.51,30.11,6,2,14,0.00
2013-1-27,30.4,21.9,12.4,28.6,17.6,9.9,100,84,66,30.54,30.16,12,5,19,0.00
2013-1-28,46.1,38.4,30.7,45.6,37.6,28.6,98,97,93,30.20,29.90,7,4,21,0.39
2013-1-29,58.4,46.9,35.8,55.5,46.1,35.0,99,97,90,30.06,29.49,15,6,23,0.10
2013-1-30,61.8,50.3,32.7,58.5,48.3,27.8,98,93,82,29.49,29.14,17,7,27,0.09
2013-1-31,32.7,22.7,17.3,27.7,17.1,11.2,92,79,64,29.94,29.28,16,9,30,0.00
2013-2-1,18.2,14.8,9.5,14.4,9.7,3.2,92,80,69,30.35,29.94,10,6,18,0.00
2013-2-2,23.5,17.0,7.2,20.9,13.2,4.1,94,85,78,30.30,30.01,8,4,14,0.00
2013-2-3,22.0,13.0,0.0,18.1,8.4,-2.9,91,82,66,30.09,29.92,11,3,20,0.00
2013-2-4,24.0,20.2,16.5,21.7,17.2,11.6,92,88,78,30.10,29.93,5,1,7,0.00
2013-2-5,28.8,23.6,12.1,27.1,20.0,10.0,94,86,73,30.01,29.87,9,4,16,0.00
2013-2-6,32.2,24.5,9.9,25.3,17.5,7.6,100,75,58,30.36,30.01,10,2,19,0.24
2013-2-7,38.5,30.6,25.6,29.9,24.7,17.9,89,79,71,30.34,29.90,10,6,20,0.09
2013-2-8,30.4,26.6,14.6,28.8,22.9,11.6,95,86,72,30.41,29.82,15,6,25,0.00
2013-2-9,30.1,20.7,4.9,22.6,15.6,2.1,93,81,61,30.52,30.35,9,3,15,0.10
2013-2-10,39.3,31.3,21.5,37.0,27.0,19.8,94,85,66,30.35,29.74,12,6,22,0.15
2013-2-11,45.0,38.2,32.3,43.7,32.7,26.5,96,81,70,29.92,29.60,15,10,31,0.07
2013-2-12,32.6,31.2,28.4,27.3,25.2,22.7,83,78,75,30.10,29.92,10,6,21,0.00
2013-2-13,39.5,31.4,26.9,29.2,25.5,22.4,90,79,62,29.98,29.77,7,2,11,0.13
2013-2-14,40.4,35.0,29.3,37.5,31.6,27.0,93,87,76,29.89,29.72,12,6,24,0.08
2013-2-15,35.1,28.5,22.6,30.0,19.7,14.4,84,70,57,30.18,29.89,10,6,19,0.00
2013-2-16,25.3,20.7,16.4,21.7,15.7,10.2,90,81,58,30.16,30.03,9,2,16,0.00
2013-2-17,24.0,17.4,10.7,14.8,9.3,6.0,89,71,52,30.28,30.12,11,4,18,0.00
2013-2-18,47.5,32.4,14.8,38.6,23.2,8.7,79,69,57,30.28,29.65,15,8,25,0.00
2013-2-19,47.0,29.1,18.8,41.3,24.9,12.2,94,84,72,29.99,29.46,15,10,29,0.20
2013-2-20,22.9,20.1,16.6,17.6,12.9,8.1,87,74,65,30.30,29.99,11,7,21,0.00
2013-2-21,26.2,22.8,21.3,19.1,16.8,15.1,86,78,67,30.44,30.30,9,4,14,0.00
2013-2-22,34.1,27.7,22.7,33.3,25.7,19.1,97,92,83,30.33,29.94,13,6,21,0.00
2013-2-23,34.1,30.8,25.8,32.2,23.8,20.2,95,75,65,29.97,29.91,9,5,17,0.02
2013-2-24,36.1,29.3,23.7,27.0,23.9,20.0,91,80,67,30.21,29.95,8,3,17,0.00
2013-2-25,35.5,22.0,15.8,30.5,20.1,13.9,95,92,82,30.28,30.20,1,0,2,0.00
2013-3-4,35.0,30.2,23.8,19.5,18.4,17.2,79,62,49,30.19,30.13,5,2,10,0.10
2013-3-5,35.7,28.6,21.3,27.1,22.2,17.5,91,77,62,30.19,29.87,13,6,20,0.09
2013-3-6,39.1,33.1,27.1,30.9,27.9,23.3,88,81,70,30.26,29.89,7,4,16,0.12
2013-3-7,35.6,33.2,27.1,31.1,27.4,20.8,92,80,66,30.45,30.25,8,3,14,0.01
2013-3-8,44.0,31.4,18.5,29.7,24.2,16.4,93,76,54,30.55,30.44,5,1,14,0.00
2013-3-9,42.2,35.1,25.3,33.5,29.3,23.4,95,80,66,30.48,30.09,11,5,19,0.00
2013-3-10,61.7,50.1,38.0,48.1,39.5,33.0,83,68,54,30.09,29.82,13,6,25,0.00
2013-3-11,56.7,50.0,37.9,49.5,44.8,33.3,95,83,60,29.85,29.48,16,10,27,0.31
2013-3-12,38.0,34.6,30.9,33.9,30.2,26.3,91,84,75,29.97,29.71,10,6,21,0.02
2013-3-13,32.3,29.1,25.4,28.9,22.5,15.5,92,77,58,30.25,29.90,12,7,23,0.00
2013-3-14,40.4,31.3,20.7,24.9,20.2,14.9,86,64,45,30.31,30.14,9,4,20,0.00
2013-3-15,39.5,35.4,32.3,34.8,30.4,21.9,95,82,62,30.14,29.89,7,3,17,0.06
2013-3-16,34.3,30.2,28.2,33.3,27.3,23.3,96,89,76,30.09,29.80,7,4,15,0.01
2013-3-17,32.8,27.3,20.0,25.6,18.6,14.0,87,70,55,30.32,30.09,10,5,18,0.03
2013-3-18,35.8,30.9,23.1,34.7,27.9,16.7,96,88,75,30.24,29.60,12,7,23,0.00
2013-3-19,35.4,27.6,23.5,32.6,20.8,16.4,92,76,65,30.00,29.66,15,9,27,0.00
2013-3-20,28.5,25.3,18.5,19.8,16.6,10.2,82,69,58,30.01,29.94,11,6,19,0.00
2013-3-21,31.9,24.4,16.2,25.1,19.5,12.4,92,82,67,30.00,29.92,10,6,17,0.00
2013-3-22,39.5,31.3,26.6,25.3,22.5,19.1,85,70,55,30.07,29.99,8,5,16,0.00
2013-3-23,36.8,29.6,20.2,27.0,23.7,18.1,94,79,64,30.16,30.07,6,2,11,0.00
2013-3-24,37.1,31.1,23.5,28.6,24.8,20.9,93,78,57,30.10,29.68,11,5,22,0.00
2013-3-25,40.4,35.1,31.6,30.4,27.8,25.2,83,75,62,29.96,29.61,10,7,22,0.00
2013-3-26,42.9,36.8,33.5,33.2,30.2,27.7,90,77,59,30.16,29.96,9,5,17,0.00
2013-3-27,46.3,38.2,31.0,32.1,28.6,26.4,89,70,49,30.25,30.16,12,7,19,0.00
2013-3-28,50.9,40.5,30.7,30.8,27.5,24.7,83,62,41,30.31,30.25,10,4,16,0.00
2013-3-29,51.9,40.2,27.6,27.7,24.6,22.5,83,56,33,30.32,30.22,7,2,11,0.00
2013-3-30,55.2,41.2,24.5,34.0,25.6,19.7,91,59,27,30.26,29.97,9,3,17,0.00
2013-3-31,58.0,46.8,35.3,43.9,35.8,30.2,91,67,40,29.97,29.64,11,4,21,0.02
2013-4-1,43.2,33.2,27.6,32.5,19.3,13.4,80,57,38,30.15,29.72,13,8,23,0.00
2013-4-2,41.3,32.0,24.1,21.0,16.6,14.2,83,55,34,30.30,30.15,12,5,22,0.00
2013-4-3,42.2,32.3,22.4,20.2,16.4,12.5,80,54,31,30.47,30.30,11,3,20,0.00
2013-4-4,55.5,40.8,26.4,25.2,19.0,16.5,71,45,23,30.42,30.00,10,4,19,0.00
2013-4-5,47.4,41.6,35.4,31.7,24.0,18.4,81,51,32,30.24,29.97,10,4,16,0.00
2013-4-6,50.1,40.3,31.9,32.1,25.3,17.0,74,56,39,30.29,29.82,15,9,23,0.00
2013-4-7,58.0,51.9,40.5,47.2,38.8,29.0,77,62,39,30.04,29.65,13,7,24,0.00
2013-4-8,67.0,46.8,36.7,57.6,41.4,31.9,93,82,60,30.07,29.72,13,6,28,0.18
2013-4-9,55.3,47.7,43.6,48.5,44.2,41.5,93,88,74,30.11,29.90,11,4,17,0.01
2013-4-10,48.2,43.4,40.0,46.3,42.1,39.0,97,95,92,30.02,29.88,9,4,17,0.61
2013-4-11,39.9,38.4,36.8,38.9,37.1,35.2,97,95,94,30.02,29.66,13,8,25,1.03
2013-4-12,43.4,39.3,36.3,40.2,36.7,33.8,97,91,76,29.81,29.57,12,4,22,0.39
2013-4-13,41.7,39.2,36.2,38.7,32.6,28.6,90,77,62,30.03,29.81,12,6,24,0.04
2013-4-14,48.2,40.1,32.6,38.1,33.1,27.8,87,76,65,30.16,29.98,13,4,22,0.03
2013-4-15,66.7,55.2,40.3,56.2,47.3,35.5,89,75,63,30.00,29.89,16,7,25,0.02
2013-4-16,62.7,54.3,46.5,54.9,43.8,32.2,95,71,38,30.25,29.87,14,4,21,0.21
2013-4-17,55.2,47.8,41.2,45.6,37.5,32.3,93,68,50,30.36,30.07,12,6,22,0.36
2013-4-18,76.4,58.6,44.1,66.6,55.2,42.2,96,89,69,30.07,29.57,21,10,39,0.86
2013-4-19,59.3,45.7,37.6,58.2,40.4,30.3,97,82,66,29.79,29.34,16,9,33,0.35
2013-4-20,40.0,35.0,29.2,33.1,24.6,19.3,92,66,50,30.50,29.79,12,7,24,0.06
2013-4-21,46.1,36.5,23.4,32.1,25.9,21.4,93,67,47,30.68,30.50,12,5,19,0.00
2013-4-22,59.6,46.8,33.4,37.7,31.2,21.6,91,59,23,30.52,30.22,9,4,15,0.00
2013-4-23,69.9,56.5,40.7,54.6,44.5,34.6,95,67,42,30.23,29.81,15,5,37,0.25
2013-4-24,55.5,41.2,35.3,54.4,38.1,28.6,100,89,70,30.18,29.75,11,5,18,0.60
2013-4-25,51.1,40.7,32.4,42.2,32.6,28.0,91,74,46,30.39,30.16,13,4,24,0.10
2013-4-26,58.1,45.2,28.7,40.4,33.9,26.9,95,67,43,30.51,30.38,12,4,21,0.00
2013-4-27,67.2,53.7,35.5,46.1,38.2,31.3,96,61,27,30.41,30.13,10,3,19,0.00
2013-4-28,54.5,52.9,50.0,53.8,46.3,34.7,98,80,51,30.13,29.86,9,2,15,0.22
2013-4-29,68.9,59.9,52.2,56.6,54.4,51.7,98,84,60,29.96,29.86,8,2,14,0.02
2013-4-30,71.8,62.5,54.3,58.8,55.6,52.3,94,79,61,30.08,29.94,16,7,27,0.05
2013-5-1,79.1,66.7,51.7,60.0,55.6,50.1,96,70,44,30.24,30.07,12,4,19,0.00
2013-5-2,76.3,66.7,56.4,57.9,51.8,45.3,81,60,41,30.25,30.13,15,5,24,0.00
2013-5-3,74.2,66.7,58.5,58.4,46.9,34.1,66,51,24,30.14,30.05,14,5,24,0.00
2013-5-4,70.0,63.1,56.6,49.6,43.4,32.9,74,50,32,30.12,30.05,13,5,26,0.00
2013-5-5,70.6,62.0,53.5,46.9,40.5,33.2,70,47,27,30.12,30.03,12,4,23,0.00
2013-5-6,72.6,61.9,51.3,51.1,44.6,39.3,71,54,39,30.07,29.98,10,3,20,0.00
2013-5-7,73.5,63.2,49.6,55.0,49.8,41.8,85,63,45,30.07,29.99,11,3,21,0.00
2013-5-8,77.6,63.8,50.8,56.7,51.3,47.6,95,67,37,30.03,29.93,8,2,17,0.00
2013-5-9,79.2,66.3,49.0,58.3,51.8,46.6,97,64,34,29.98,29.90,7,1,13,0.00
2013-5-10,69.6,58.2,43.6,62.2,54.1,40.9,97,86,68,29.93,29.75,9,5,19,0.27
2013-5-11,62.0,47.5,39.1,48.0,42.4,34.4,95,83,53,29.93,29.75,14,5,25,0.03
2013-5-12,48.1,41.3,32.3,35.9,31.2,26.4,88,68,50,30.14,29.92,13,6,28,0.00
2013-5-13,54.5,41.5,27.6,33.7,27.4,23.1,94,62,30,30.22,30.13,9,3,21,0.00
2013-5-14,77.4,59.7,41.4,56.7,43.2,31.6,72,55,41,30.15,29.73,12,4,24,0.00
2013-5-15,81.3,70.7,55.4,60.6,50.9,41.9,95,54,31,29.79,29.60,12,5,24,0.00
2013-5-16,81.3,67.9,48.0,51.9,47.0,40.8,92,51,28,30.02,29.78,9,3,17,0.00
2013-5-17,72.2,61.5,50.8,48.4,43.8,40.1,74,54,36,30.15,30.02,9,4,20,0.00
2013-5-18,78.8,66.6,55.4,53.5,48.3,41.7,73,53,36,30.16,30.03,9,4,17,0.01
2013-5-19,84.0,69.9,54.8,65.2,57.5,46.6,83,66,48,30.06,29.88,9,3,14,0.00
2013-5-20,89.2,75.8,61.3,71.6,64.9,59.6,96,72,43,29.93,29.75,12,4,26,0.00
2013-5-21,84.1,76.3,67.1,69.1,64.6,60.6,91,69,47,29.81,29.69,11,3,20,0.01
2013-5-22,80.1,67.8,62.5,64.7,63.0,60.4,95,86,52,29.74,29.62,13,2,31,0.21
2013-5-23,64.5,54.0,44.1,60.9,51.9,41.8,97,93,84,30.17,29.69,11,4,19,0.11
2013-5-24,54.6,46.6,40.1,43.2,38.4,34.6,96,74,50,30.38,30.17,9,4,18,0.00
2013-5-25,63.9,51.7,35.2,44.0,38.3,33.8,97,64,39,30.44,30.31,6,2,15,0.00
2013-5-26,68.3,55.5,35.3,47.3,38.2,33.6,97,58,29,30.38,30.24,6,1,12,0.00
2013-5-27,59.1,51.8,45.9,50.7,43.9,35.4,96,76,54,30.29,30.03,10,4,15,0.29
2013-5-28,77.6,63.3,51.8,70.9,60.6,50.7,98,92,77,30.03,29.81,8,3,15,0.23
2013-5-29,81.9,74.1,66.6,68.9,65.8,62.1,95,76,53,29.98,29.78,9,3,20,0.14
2013-5-30,86.3,73.6,62.4,74.3,67.2,61.2,97,81,57,30.06,29.95,12,3,22,0.29
2013-5-31,79.7,72.1,67.9,70.6,67.8,65.9,96,87,68,29.99,29.85,12,4,19,0.38
2013-6-1,78.1,70.3,63.9,69.0,65.1,62.5,97,84,67,29.85,29.69,11,5,20,0.22
2013-6-2,70.0,64.6,53.5,65.3,57.9,45.1,92,79,68,29.99,29.66,9,5,15,0.00
2013-6-3,66.2,55.3,40.8,47.9,42.9,38.9,95,66,41,30.11,29.99,6,2,10,0.00
2013-6-4,71.4,59.3,44.5,50.7,46.0,34.8,96,65,40,30.22,30.11,7,2,11,0.00
2013-6-5,72.0,61.3,50.1,49.8,43.3,33.5,70,53,37,30.19,30.00,8,2,12,0.00
2013-6-6,67.7,60.9,56.0,56.1,50.3,43.8,81,68,62,30.01,29.85,7,3,14,0.00
2013-6-7,56.7,53.2,51.0,51.7,50.3,48.8,95,90,82,29.93,29.88,5,1,11,0.00
2013-6-10,70.9,66.3,60.8,67.9,64.8,59.9,98,95,90,29.86,29.73,6,1,12,1.50
2013-6-11,80.7,72.8,64.2,68.3,65.5,63.3,97,79,61,29.89,29.81,7,3,16,0.00
2013-6-12,78.2,69.9,61.0,70.2,65.6,59.6,96,86,73,29.93,29.64,8,1,14,0.13
2013-6-13,75.8,68.3,61.6,66.1,61.0,56.8,97,79,53,29.92,29.52,10,4,21,0.62
2013-6-14,75.2,66.0,56.7,60.7,56.8,53.3,93,74,47,30.08,29.92,7,2,14,0.12
2013-6-15,77.7,66.1,54.9,64.8,59.3,53.3,97,80,54,30.10,29.93,6,1,16,0.03
2013-6-16,81.0,70.5,59.8,67.8,62.9,53.2,97,79,45,29.93,29.78,8,3,15,0.05
2013-6-17,85.4,72.3,56.5,65.3,59.6,54.6,96,68,38,29.93,29.82,6,2,15,0.02
2013-6-18,70.7,63.9,54.9,60.8,53.8,43.9,96,72,43,30.08,29.87,8,3,15,0.02
2013-6-19,74.5,61.1,45.1,56.2,49.9,43.1,96,69,44,30.18,30.08,6,2,15,0.00
2013-6-20,81.1,66.3,50.9,60.2,54.7,49.5,97,69,42,30.23,30.14,8,2,14,0.00
2013-6-21,66.7,59.3,56.6,62.7,57.0,55.1,96,92,81,30.21,30.17,0,0,1,0.00
2013-6-22,81.0,75.6,73.5,77.7,70.6,68.2,90,84,80,30.04,29.96,9,2,15,0.12
2013-6-23,87.7,78.9,67.9,73.1,68.8,65.8,95,73,53,30.06,29.95,8,2,18,0.00
2013-6-24,86.4,78.2,67.8,73.6,69.2,64.4,89,75,59,30.05,29.90,7,2,16,0.00
2013-6-25,83.6,74.2,67.7,74.8,69.2,64.2,96,85,69,30.00,29.80,8,2,16,0.32
2013-6-26,80.8,72.7,65.7,72.2,68.6,64.8,97,87,70,29.90,29.73,8,1,24,0.46
2013-6-27,82.0,70.8,65.5,73.2,68.3,64.1,98,92,68,29.76,29.63,6,1,14,0.29
2013-6-28,77.5,67.3,62.9,70.3,64.8,61.4,98,92,67,29.64,29.51,9,1,17,0.11
2013-6-29,71.9,65.7,62.0,66.0,63.1,60.8,99,92,77,29.62,29.54,3,0,7,0.00
2013-7-1,66.6,62.6,59.0,60.8,57.8,52.1,93,84,75,30.07,29.96,5,2,11,0.19
2013-7-2,72.8,65.4,58.6,64.4,60.5,56.1,94,84,74,30.08,30.02,5,1,12,0.02
2013-7-3,81.5,70.7,61.6,70.1,65.0,59.4,96,83,58,30.10,30.04,7,2,14,0.00
2013-7-4,72.5,68.6,66.4,69.0,67.1,65.3,97,95,89,30.11,30.06,2,0,4,0.00
2013-7-5,80.5,75.4,69.0,70.9,68.1,64.3,97,79,61,30.10,30.04,7,2,12,0.02
2013-7-6,81.3,73.5,67.6,72.6,69.4,66.1,97,88,68,30.10,29.98,8,1,14,0.07
2013-7-7,81.1,73.5,69.0,72.0,69.5,66.1,97,88,66,30.02,29.95,4,1,11,0.06
2013-7-8,81.7,74.1,68.3,76.3,70.2,66.6,96,88,78,30.04,29.94,7,1,12,0.17
2013-7-9,87.3,75.6,70.6,76.4,71.8,68.5,98,89,62,29.97,29.86,13,1,23,1.24
2013-7-10,86.1,77.0,65.3,78.4,71.0,59.3,98,83,59,29.93,29.75,11,2,22,0.00
2013-7-11,77.3,67.4,59.1,61.4,58.2,55.7,94,74,50,30.06,29.92,5,1,13,0.00
2013-7-12,80.1,68.3,55.6,63.7,59.7,53.9,96,76,48,30.16,30.06,6,1,15,0.00
2013-7-13,81.5,72.3,61.0,67.8,62.9,58.4,94,74,49,30.22,30.14,8,2,20,0.00
2013-7-14,86.3,76.4,65.4,73.7,68.7,63.2,95,78,60,30.25,30.19,7,2,13,0.00
2013-7-15,88.3,78.7,69.5,78.8,73.6,68.3,97,85,69,30.28,30.19,5,1,14,0.00
2013-7-16,90.0,81.8,74.6,79.3,75.6,72.7,95,82,63,30.29,30.21,5,1,11,0.00
2013-7-17,91.2,81.9,71.9,79.2,75.6,70.6,97,82,63,30.27,30.13,5,1,10,0.00
2013-7-18,92.2,81.9,71.1,79.3,74.4,69.6,98,80,52,30.15,29.94,6,1,14,0.00
2013-7-19,92.5,84.2,76.4,77.1,74.7,72.9,90,74,54,29.95,29.70,10,3,20,0.04
2013-7-20,83.9,75.0,67.0,75.2,67.8,63.2,97,80,51,29.91,29.70,9,1,22,0.40
2013-7-21,81.8,72.4,63.1,68.4,63.2,57.4,94,74,54,30.00,29.91,3,0,8,0.00
2013-7-22,80.7,73.5,68.5,69.9,67.3,65.5,95,82,63,29.95,29.75,8,2,14,0.01
2013-7-23,83.6,71.5,59.5,72.6,66.2,53.0,95,84,64,29.87,29.65,11,3,18,0.08
2013-7-24,71.0,63.1,55.8,56.2,53.3,50.1,92,71,54,30.06,29.87,7,2,12,0.00
2013-7-25,75.2,63.5,48.5,58.8,54.3,47.3,97,74,49,30.12,30.06,6,1,10,0.00
2013-7-26,77.1,68.0,55.4,62.7,58.8,54.0,97,74,52,30.11,29.91,8,2,15,0.01
2013-7-27,73.4,65.5,55.4,69.4,62.5,52.1,95,90,80,29.92,29.72,11,2,17,0.17
2013-7-28,65.4,57.8,50.0,57.1,52.9,48.6,96,84,66,30.00,29.84,8,2,19,0.01
2013-7-29,69.2,61.1,55.2,58.6,55.3,52.5,95,82,63,30.20,30.00,7,2,15,0.01
2013-7-30,78.3,65.1,50.6,63.0,57.3,49.5,97,78,50,30.25,30.13,4,1,9,0.00
2013-7-31,74.8,68.0,63.0,68.2,65.0,61.0,96,90,73,30.13,29.89,8,1,14,0.41
2013-8-1,78.7,67.8,57.8,65.8,62.0,55.8,97,83,48,29.92,29.87,8,2,16,0.01
2013-8-2,72.5,63.9,53.4,65.8,59.8,52.3,97,87,67,29.94,29.85,9,2,19,0.00
2013-8-3,76.9,68.8,58.7,64.6,59.6,54.2,99,75,46,30.05,29.90,7,1,15,0.00
2013-8-4,72.2,63.9,53.6,58.6,55.5,51.7,95,75,52,30.16,30.05,7,2,15,0.00
2013-8-5,71.4,64.3,52.9,59.8,55.6,50.4,94,74,54,30.13,29.97,7,1,13,0.00
2013-8-6,76.8,69.5,63.7,70.6,64.3,59.6,94,84,71,29.98,29.89,9,3,17,0.14
2013-8-7,83.2,71.9,65.3,72.8,68.2,64.1,97,89,65,29.92,29.81,6,1,12,0.27
2013-8-8,75.9,69.6,65.1,71.3,64.9,60.9,95,86,69,30.00,29.88,4,1,11,0.00
2013-8-9,80.2,69.6,59.9,63.8,60.2,56.1,95,74,46,30.01,29.94,5,1,12,0.00
2013-8-10,76.4,67.8,61.2,64.0,61.1,58.4,96,80,59,30.12,30.01,5,1,10,0.00
2013-8-11,78.9,68.2,55.7,64.1,59.9,54.6,98,77,50,30.13,30.03,6,1,11,0.00
2013-8-12,72.5,66.0,63.3,69.2,63.9,60.0,97,93,84,30.06,29.84,4,0,13,1.97
2013-8-13,66.7,61.7,54.8,64.6,54.6,47.1,98,79,55,30.07,29.83,9,3,17,0.01
2013-8-14,69.7,58.0,48.4,54.6,50.2,46.0,93,77,53,30.18,30.07,8,1,15,0.00
2013-8-15,73.1,60.4,47.3,57.8,52.1,46.2,97,77,48,30.20,30.10,3,0,10,0.00
2013-8-16,77.3,64.6,52.0,62.0,56.1,50.9,97,76,47,30.21,30.13,4,1,10,0.00
2013-8-17,77.7,66.2,52.2,62.3,57.0,51.1,97,75,45,30.28,30.19,7,1,15,0.00
2013-8-18,79.9,67.7,55.5,67.2,59.5,54.4,98,78,49,30.23,30.11,7,1,12,0.00
2013-8-19,81.1,68.5,55.4,66.5,60.2,54.3,98,78,49,30.13,30.04,6,1,15,0.00
2013-8-20,84.3,71.1,58.8,69.7,64.2,58.0,98,81,54,30.14,30.07,5,1,11,0.00
2013-8-21,84.2,75.0,64.7,72.2,67.5,62.9,95,79,59,30.13,29.98,8,2,16,0.00
2013-8-22,79.9,74.2,68.7,71.0,68.4,65.5,94,82,69,30.03,29.94,6,2,12,0.00
2013-8-23,79.6,70.6,58.7,68.2,58.3,46.9,94,68,35,30.20,30.02,5,1,12,0.00
2013-8-24,80.1,68.4,55.1,66.8,59.1,53.7,97,74,50,30.31,30.20,6,1,12,0.00
2013-8-25,85.3,71.9,56.7,67.6,62.3,55.6,98,74,49,30.31,30.15,6,2,13,0.00
2013-8-26,86.6,77.7,67.9,74.3,68.6,62.2,93,74,63,30.17,29.96,6,2,12,0.00
2013-8-27,83.5,76.2,71.2,77.7,73.3,69.7,97,91,81,29.99,29.81,6,1,14,0.32
2013-8-28,81.6,76.6,69.7,75.9,73.3,67.9,97,90,76,29.99,29.77,5,2,12,0.15
2013-8-29,86.9,74.4,64.8,73.1,69.2,63.8,98,85,59,30.06,29.99,8,1,19,0.00
2013-8-30,86.4,76.8,63.2,73.2,69.3,62.3,98,79,59,29.99,29.72,7,2,15,0.00
2013-8-31,79.8,74.4,69.3,72.9,69.6,66.0,96,85,69,29.83,29.72,4,1,9,0.00
2013-9-1,81.6,72.8,67.7,74.3,68.7,65.6,93,87,74,29.84,29.70,6,1,13,0.00
2013-9-2,73.6,69.6,67.9,70.7,66.8,61.9,94,91,78,29.83,29.72,8,2,14,0.00
2013-9-3,74.0,64.7,57.5,58.0,55.4,52.6,92,73,53,30.03,29.93,6,2,14,0.00
2013-9-4,79.9,67.2,53.8,64.4,59.1,52.5,97,77,54,30.10,30.01,6,2,15,0.00
2013-9-5,69.7,62.0,53.5,62.2,52.8,47.3,93,74,47,30.27,30.07,5,2,13,0.00
2013-9-6,74.9,60.3,45.9,56.5,49.6,40.9,97,72,40,30.30,30.08,6,1,11,0.00
2013-9-7,81.3,69.1,57.1,71.5,61.6,49.1,93,77,64,30.08,29.89,6,1,14,0.02
2013-9-8,73.4,68.6,58.7,67.3,60.3,51.1,93,76,56,30.08,29.92,6,2,16,0.00
2013-9-9,76.1,64.7,53.5,71.3,61.6,50.6,97,90,77,30.08,29.91,6,1,11,0.36
2013-9-10,92.2,80.6,69.2,75.4,71.1,67.8,97,75,47,30.00,29.89,7,2,14,0.00
2013-9-11,90.2,78.2,69.2,75.1,70.3,66.9,96,78,55,30.02,29.88,9,2,22,0.13
2013-9-12,77.6,68.2,56.6,67.9,61.5,49.8,97,81,47,29.96,29.83,11,2,24,0.01
2013-9-13,58.7,53.7,42.6,49.8,46.1,40.7,93,76,60,30.16,29.96,10,4,23,0.00
2013-9-14,68.5,51.8,36.7,50.7,42.4,35.7,98,75,37,30.22,30.11,3,1,9,0.00
2013-9-15,63.8,54.7,46.6,55.2,50.5,45.0,96,87,67,30.14,30.07,3,0,7,0.05
2013-9-16,61.7,55.6,47.6,54.8,50.4,43.0,97,84,60,30.40,30.14,6,2,15,0.01
2013-9-17,66.2,52.4,36.8,52.7,44.4,35.5,98,77,43,30.44,30.25,7,2,19,0.00
2013-9-18,73.5,60.0,45.9,59.2,52.4,44.1,98,79,50,30.25,30.05,9,2,15,0.00
2013-9-19,79.3,67.6,58.1,69.4,63.8,57.2,97,88,69,30.06,29.92,7,2,14,0.00
2013-9-20,80.3,71.5,65.6,72.3,68.6,64.1,97,91,70,29.92,29.73,7,3,15,0.56
2013-9-21,68.3,62.2,55.6,64.6,56.1,47.8,97,82,53,29.88,29.67,6,2,13,0.02
2013-9-22,58.3,52.6,45.4,47.4,44.0,41.7,90,73,61,30.10,29.88,7,2,10,0.00
2013-9-23,61.4,50.0,39.9,47.1,43.9,38.3,96,81,57,30.22,30.10,5,1,11,0.00
2013-9-24,66.2,52.0,41.1,53.1,46.9,40.0,98,84,58,30.18,30.01,6,1,12,0.00
2013-9-25,69.8,56.8,45.3,56.8,51.1,44.2,97,83,56,30.03,29.95,8,1,13,0.00
2013-9-26,74.6,58.5,43.6,57.0,48.8,42.5,98,75,38,30.16,30.01,7,1,15,0.00
2013-9-27,73.8,59.7,45.1,60.6,53.1,44.0,98,81,50,30.25,30.16,8,2,15,0.00
2013-9-28,75.5,63.3,51.8,62.0,56.6,50.4,98,81,50,30.21,30.02,9,2,17,0.01
2013-9-29,63.3,60.6,58.5,62.1,57.9,54.7,97,91,80,30.03,29.96,5,2,14,0.20
2013-9-30,70.6,61.3,53.5,60.1,56.4,52.1,98,86,55,30.03,29.93,6,1,14,0.03
2013-10-1,69.5,59.5,49.2,63.9,57.0,48.4,98,92,80,30.04,29.95,9,2,16,0.00
2013-10-2,79.9,65.5,53.9,61.8,55.5,45.4,98,75,31,30.08,29.97,4,1,10,0.00
2013-10-3,76.2,65.7,53.4,68.8,61.5,51.3,97,87,74,30.06,29.93,8,2,13,0.00
2013-10-4,78.2,70.3,64.8,69.2,66.0,63.3,97,87,70,30.02,29.94,6,1,12,0.01
2013-10-5,67.2,66.6,65.5,65.9,65.0,63.9,96,95,93,30.03,29.99,3,0,5,0.41
2013-10-9,67.6,60.7,49.2,59.1,50.1,45.9,98,70,46,30.34,30.23,8,3,16,0.00
2013-10-10,70.0,55.5,43.1,56.0,46.3,42.0,98,75,37,30.25,30.14,6,1,14,0.00
2013-10-11,71.6,55.2,40.0,55.5,47.6,39.0,98,79,46,30.17,30.08,5,1,11,0.01
2013-10-12,75.3,60.8,48.4,62.1,54.8,47.4,98,83,46,30.12,30.04,9,2,15,0.01
2013-10-13,67.0,59.2,46.1,59.6,48.7,39.5,97,71,39,30.35,30.09,7,2,12,0.00
2013-10-14,63.7,52.4,44.0,46.5,44.5,41.6,94,77,50,30.43,30.29,4,1,12,0.00
2013-10-15,62.6,54.0,42.3,61.0,51.7,41.1,97,92,85,30.30,29.86,9,3,15,0.06
2013-10-16,62.4,56.3,51.8,61.2,51.6,46.0,97,85,65,29.92,29.82,8,3,16,0.00
2013-10-17,52.0,49.6,46.7,48.9,47.1,44.8,95,91,85,29.92,29.78,6,2,15,0.22
2013-10-18,63.7,51.0,41.3,48.1,44.1,39.9,96,79,47,29.94,29.86,8,2,18,0.01
2013-10-19,46.8,43.6,39.3,44.8,41.4,37.4,95,92,86,29.93,29.77,7,1,14,0.27
2013-10-20,59.4,48.9,38.9,45.5,41.6,36.8,95,78,52,29.94,29.86,9,2,20,0.02
2013-10-21,55.1,50.3,41.0,48.8,44.2,36.1,92,80,68,29.88,29.81,8,4,19,0.04
2013-10-22,50.1,41.6,32.6,37.7,32.8,28.8,88,72,52,29.95,29.87,8,2,11,0.00
2013-10-23,47.2,38.8,30.3,37.6,32.6,26.6,100,80,49,29.97,29.85,8,2,15,0.00
2013-10-24,46.7,37.7,32.3,35.9,32.1,28.2,94,82,51,30.22,29.96,7,2,16,0.03
2013-10-25,47.8,38.9,31.8,37.8,32.3,29.1,96,78,56,30.36,30.16,8,2,15,0.01
2013-10-26,50.6,42.8,36.0,40.4,34.0,29.5,94,72,58,30.16,29.81,10,4,24,0.12
2013-10-27,53.2,41.0,31.0,38.4,33.8,29.7,96,78,48,30.11,30.01,7,1,14,0.01
2013-10-28,50.5,40.9,31.2,41.5,35.3,29.4,96,81,69,30.43,30.07,5,1,12,0.00
2013-10-29,50.6,43.7,34.1,40.0,36.1,30.8,90,75,65,30.47,30.27,5,1,12,0.00
2013-10-30,62.9,46.5,33.2,51.4,40.8,31.9,97,82,53,30.27,29.98,7,2,13,0.16
2013-10-31,62.5,59.6,52.9,61.6,58.4,51.4,98,96,94,29.99,29.17,13,8,24,1.39
2013-11-1,61.2,49.7,46.1,60.1,45.2,41.4,96,85,77,29.69,29.13,14,6,35,0.07
2013-11-2,47.2,44.5,36.2,44.9,41.7,33.5,96,90,81,30.13,29.67,7,2,13,0.23
2013-11-3,45.3,37.9,31.1,37.7,33.4,29.6,96,84,65,30.49,30.13,6,1,11,0.01
2013-11-4,47.9,41.3,34.5,37.2,33.7,30.8,92,75,53,30.51,30.34,12,5,23,0.00
2013-11-5,54.0,49.2,41.7,49.2,44.3,36.5,90,83,76,30.39,30.19,6,2,12,0.00
2013-11-6,56.2,52.3,43.3,53.2,47.5,40.6,92,84,67,30.19,29.81,11,7,24,0.14
2013-11-7,45.2,40.2,35.2,40.5,32.9,27.5,93,76,55,30.16,30.00,10,4,22,0.02
2013-11-8,44.6,36.6,31.4,33.1,30.0,27.3,94,78,52,30.32,30.16,6,1,13,0.00
2013-11-9,56.6,47.9,38.0,42.9,37.5,31.5,80,68,56,30.22,29.75,11,7,26,0.01
2013-11-10,48.5,42.3,31.1,41.5,32.6,27.5,92,69,56,30.30,29.93,11,5,28,0.00
2013-11-11,43.8,36.8,29.1,39.6,32.4,23.0,94,84,75,30.36,30.06,9,4,16,0.20
2013-11-12,34.4,28.7,23.9,24.2,20.5,17.8,85,72,54,30.59,30.36,9,4,19,0.00
2013-11-13,41.3,29.8,17.6,26.5,19.3,11.1,93,68,29,30.60,30.21,10,4,21,0.01
2013-11-14,50.4,39.7,29.7,29.5,24.3,19.6,71,55,40,30.23,30.00,12,5,22,0.00
2013-11-15,50.2,43.5,37.3,33.2,29.6,25.4,69,58,49,30.10,30.02,8,4,17,0.00
2013-11-16,57.2,47.2,35.7,53.7,42.8,31.4,92,85,69,30.13,29.82,14,6,25,0.00
2013-11-17,63.5,57.8,47.7,60.3,54.6,42.0,95,89,71,29.83,29.25,20,11,43,0.73
2013-11-18,47.6,41.1,35.0,42.1,32.9,25.6,81,72,68,30.16,29.51,15,8,30,0.00
2013-11-19,41.4,35.0,28.3,26.5,24.9,22.8,87,67,49,30.45,30.16,8,2,15,0.00
2013-11-20,44.7,36.5,25.7,34.0,27.9,22.9,92,73,44,30.48,30.28,14,5,24,0.00
2013-11-21,47.1,44.1,41.3,44.1,39.1,30.5,96,83,65,30.32,30.20,9,4,18,0.37
2013-11-22,45.8,40.0,28.9,45.0,37.2,25.8,97,90,76,30.40,30.15,11,3,17,0.04
2013-11-23,29.8,25.1,17.0,25.9,18.6,9.5,91,77,52,30.57,30.30,13,6,25,0.00
2013-11-24,25.4,19.2,13.5,18.2,12.2,9.0,92,74,57,30.66,30.49,8,4,16,0.00
2013-11-25,31.1,26.2,19.5,26.1,18.2,12.1,86,72,58,30.49,30.14,11,6,23,0.00
2013-11-26,34.9,32.0,29.6,30.6,28.0,25.4,91,85,80,30.16,29.97,6,3,13,0.00
2013-11-27,29.6,24.5,19.6,25.2,16.7,12.2,88,72,56,30.25,29.95,11,5,25,0.00
2013-11-28,28.4,23.3,17.5,22.7,17.3,12.8,90,78,65,30.48,30.25,8,2,15,0.00
2013-11-29,34.8,25.5,15.4,25.3,19.6,12.7,93,79,54,30.71,30.48,7,1,9,0.00
2013-11-30,44.9,34.9,28.8,31.0,26.9,23.1,82,73,56,30.60,30.14,9,4,16,0.00
2013-12-1,43.9,35.7,28.9,36.6,31.1,25.4,93,84,71,30.14,30.01,6,1,11,0.00
2013-12-2,38.5,33.6,26.3,32.8,27.2,21.9,93,78,58,30.04,29.92,4,1,10,0.00
2013-12-3,38.6,34.7,25.8,37.0,32.3,21.9,95,91,83,29.95,29.88,10,3,17,0.06
2013-12-4,58.6,46.7,38.5,55.1,44.7,36.9,96,93,88,29.93,29.64,11,4,17,0.00
2013-12-5,58.5,43.4,31.0,55.4,36.7,23.2,92,77,67,30.17,29.63,11,6,27,0.00
2013-12-6,31.0,26.9,21.8,24.0,19.3,14.8,78,73,68,30.45,30.15,6,4,14,0.00
2013-12-7,25.2,20.0,12.4,16.0,12.1,8.5,92,71,58,30.67,30.45,7,2,18,0.00
2013-12-8,29.7,20.2,11.7,28.2,16.2,8.5,94,84,71,30.66,30.05,10,3,15,0.00
2013-12-9,29.7,26.6,20.0,28.4,22.4,14.4,95,84,73,30.16,29.93,11,6,24,0.00
2013-12-10,22.4,18.7,11.9,16.6,10.6,2.8,81,71,51,30.25,30.01,11,6,23,0.00
2013-12-11,23.6,18.4,7.8,19.8,12.7,1.9,87,78,67,30.52,30.24,7,3,16,0.00
2013-12-12,22.0,14.1,2.0,16.8,6.9,-2.0,88,74,46,30.52,30.25,10,4,21,0.00
2013-12-13,28.8,24.9,21.7,22.2,19.5,16.8,82,80,75,30.32,30.21,7,2,16,0.00
2013-12-14,24.2,20.4,18.8,20.2,17.8,14.9,92,90,76,30.31,29.87,9,5,18,0.00
2013-12-15,25.6,20.9,17.3,23.5,17.4,10.7,100,86,72,30.09,29.86,12,5,27,0.00
2013-12-16,25.0,15.1,4.5,16.1,10.3,1.5,91,82,61,30.24,30.07,5,1,10,0.08
2013-12-17,27.4,22.3,14.2,24.6,19.7,11.8,93,89,84,30.07,29.91,10,3,19,0.00
2013-12-18,30.7,26.9,21.8,25.6,22.1,16.6,94,82,67,30.16,29.95,12,4,20,0.00
2013-12-19,40.9,34.0,25.6,34.7,28.6,17.8,92,80,71,30.03,29.92,4,1,15,0.10
2013-12-20,42.2,37.4,35.3,41.4,36.5,34.0,97,96,92,29.94,29.75,4,0,7,0.43
2013-12-21,35.7,34.4,33.5,34.9,33.7,32.7,98,97,96,29.89,29.68,5,1,14,0.76
2013-12-22,38.6,35.5,33.8,36.5,33.8,32.3,97,93,86,29.99,29.58,10,2,19,0.27
2013-12-23,34.1,29.2,20.2,33.8,24.1,14.1,100,81,68,30.35,29.99,8,4,17,0.00
2013-12-24,20.2,15.5,10.3,13.4,9.8,7.0,88,78,65,30.60,30.34,9,4,15,0.00
2013-12-25,25.6,20.2,10.2,23.6,16.9,6.6,92,87,80,30.57,30.17,11,6,18,0.00
2013-12-26,28.4,26.7,24.8,26.0,22.2,17.8,93,83,69,30.34,30.09,10,5,19,0.00
2013-12-27,39.7,33.8,26.4,33.2,29.4,23.3,89,84,75,30.35,30.12,7,3,15,0.03
2013-12-28,47.4,40.7,35.0,37.6,34.2,30.1,84,77,67,30.16,29.93,8,3,21,0.00
2013-12-29,42.7,35.2,23.0,33.8,29.6,18.6,92,80,69,30.04,29.70,8,3,19,0.00
2013-12-30,23.0,19.8,16.0,17.7,11.5,6.5,83,70,62,30.31,30.04,8,3,17,0.00
2013-12-31,21.2,17.5,15.9,16.3,12.3,9.9,88,80,68,30.39,30.12,9,4,20,0.00
2014-1-1,16.6,14.4,12.9,13.9,11.2,9.2,90,87,83,30.44,30.28,4,2,11,0.00
2014-1-2,16.1,12.5,3.6,13.7,9.6,-1.5,90,88,79,30.35,30.13,12,7,25,0.00